Time;durP1;ratioP1;P1;durP2;ratioP2;P2;SDS_P1;SDS_P2;PMS_P1;PMS_P2;Temp;Humidity;BMP_temperature;BMP_pressure;BME280_temperature;BME280_humidity;BME280_pressure;Samples;Min_cycle;Max_cycle;Signal;HPM_P1;HPM_P2
2023/07/26 00:00:59;;;;;;;18.55;8.80;;;588.90;2432.00;;;;;;5088236;28;20047;-54
2023/07/26 00:03:25;;;;;;;18.70;8.60;;;589.00;2432.00;;;;;;5088553;28;20051;-54
2023/07/26 00:05:51;;;;;;;15.20;8.80;;;589.00;2432.00;;;;;;5088322;28;20070;-55
2023/07/26 00:08:16;;;;;;;13.48;8.30;;;589.00;2432.00;;;;;;5088694;28;20064;-60
2023/07/26 00:10:46;;;;;;;13.98;8.73;;;589.00;2432.00;;;;;;5088624;28;20028;-55
2023/07/26 00:13:15;;;;;;;16.70;9.35;;;589.00;2432.00;;;;;;5088752;28;20039;-56
2023/07/26 00:15:40;;;;;;;15.68;9.02;;;588.90;2432.00;;;;;;5088715;28;20028;-59
2023/07/26 00:18:07;;;;;;;15.45;8.88;;;588.90;2432.00;;;;;;5088355;28;20485;-55
2023/07/26 00:20:33;;;;;;;17.35;9.45;;;588.80;2432.00;;;;;;5088533;28;20035;-57
2023/07/26 00:22:58;;;;;;;11.02;7.82;;;564.10;2432.00;;;;;;5087988;28;20470;-62
2023/07/26 00:25:24;;;;;;;11.55;7.88;;;564.10;2432.00;;;;;;5088407;28;20024;-56
2023/07/26 00:27:49;;;;;;;17.80;9.38;;;564.10;2432.00;;;;;;5087696;28;20139;-57
2023/07/26 00:30:15;;;;;;;17.42;8.55;;;564.10;2432.00;;;;;;5088175;28;20047;-55
2023/07/26 00:32:41;;;;;;;16.45;10.20;;;564.00;2432.00;;;;;;5087743;28;20493;-56
2023/07/26 00:35:07;;;;;;;16.58;7.82;;;564.10;2432.00;;;;;;5088225;28;20102;-55
2023/07/26 00:37:33;;;;;;;19.23;9.40;;;564.00;2432.00;;;;;;5088720;28;20102;-55
2023/07/26 00:39:58;;;;;;;16.25;8.57;;;564.00;2432.00;;;;;;5090195;28;20131;-56
2023/07/26 00:42:24;;;;;;;19.65;8.10;;;564.10;2432.00;;;;;;5091410;28;20021;-59
2023/07/26 00:44:50;;;;;;;17.42;8.32;;;564.10;2432.00;;;;;;5091381;28;20023;-53
2023/07/26 00:47:16;;;;;;;18.85;8.52;;;564.10;2432.00;;;;;;5091466;28;20040;-55
2023/07/26 00:49:43;;;;;;;15.20;8.05;;;564.10;2432.00;;;;;;5091873;28;20028;-56
2023/07/26 00:52:12;;;;;;;18.83;8.70;;;564.10;2432.00;;;;;;5091474;28;20371;-55
2023/07/26 00:54:37;;;;;;;13.32;8.93;;;588.80;2432.00;;;;;;5091293;28;20035;-55
2023/07/26 00:57:04;;;;;;;10.63;8.50;;;564.10;2432.00;;;;;;5090976;28;20068;-58
2023/07/26 00:59:30;;;;;;;15.43;9.00;;;564.10;2432.00;;;;;;5090976;28;20123;-55
2023/07/26 01:01:55;;;;;;;14.77;8.32;;;564.10;2432.00;;;;;;5091044;28;20451;-55
2023/07/26 01:04:21;;;;;;;14.75;7.90;;;564.10;2432.00;;;;;;5090338;28;20035;-55
2023/07/26 01:06:49;;;;;;;12.73;8.25;;;564.10;2432.00;;;;;;5091105;28;20024;-54
2023/07/26 01:09:24;;;;;;;16.45;8.82;;;564.10;2432.00;;;;;;5091055;28;20040;-62
2023/07/26 01:12:03;;;;;;;16.10;8.75;;;564.10;2432.00;;;;;;5090883;28;20541;-54
2023/07/26 01:14:54;;;;;;;13.15;7.43;;;564.10;2432.00;;;;;;5090499;28;20028;-56
2023/07/26 01:17:19;;;;;;;12.05;8.50;;;564.10;2432.00;;;;;;5079431;28;20469;-54
2023/07/26 01:19:45;;;;;;;13.02;7.30;;;564.10;2432.00;;;;;;5089452;28;20047;-54
2023/07/26 01:22:11;;;;;;;12.68;6.50;;;564.10;2432.00;;;;;;5091158;28;20462;-54
2023/07/26 01:24:36;;;;;;;20.15;8.90;;;564.00;2432.00;;;;;;5089607;28;20043;-57
2023/07/26 01:27:03;;;;;;;18.92;8.52;;;564.00;2432.00;;;;;;5090866;28;20134;-54
2023/07/26 01:29:28;;;;;;;14.38;8.32;;;564.00;2432.00;;;;;;5090583;28;20035;-54
2023/07/26 01:31:54;;;;;;;14.65;7.93;;;564.00;2432.00;;;;;;5090848;28;20374;-55
2023/07/26 01:34:20;;;;;;;19.15;8.02;;;564.00;2432.00;;;;;;5090723;28;20497;-54
2023/07/26 01:36:49;;;;;;;15.55;8.32;;;564.00;2432.00;;;;;;5090945;28;20032;-54
2023/07/26 01:39:15;;;;;;;13.27;7.10;;;564.00;2432.00;;;;;;5090809;28;20039;-54
2023/07/26 01:41:41;;;;;;;13.88;7.88;;;564.00;2432.00;;;;;;5090910;28;20457;-54
2023/07/26 01:44:07;;;;;;;14.23;7.40;;;564.00;2432.00;;;;;;5090932;28;20055;-54
2023/07/26 01:46:33;;;;;;;14.50;6.90;;;564.00;2432.00;;;;;;5090832;28;20024;-54
2023/07/26 01:48:58;;;;;;;16.58;8.23;;;564.10;2432.00;;;;;;5089824;28;20048;-54
2023/07/26 01:51:24;;;;;;;15.70;8.02;;;564.00;2432.00;;;;;;5090259;28;20515;-54
2023/07/26 01:53:50;;;;;;;16.70;6.75;;;564.10;2432.00;;;;;;5090287;28;20056;-60
2023/07/26 01:56:16;;;;;;;19.60;8.02;;;564.10;2432.00;;;;;;5090647;28;20056;-54
2023/07/26 01:58:41;;;;;;;14.35;7.45;;;564.10;2432.00;;;;;;5089970;28;20035;-53
2023/07/26 02:01:07;;;;;;;12.85;6.75;;;564.10;2432.00;;;;;;5090536;28;20089;-54
2023/07/26 02:03:33;;;;;;;14.57;7.68;;;564.10;2432.00;;;;;;5090341;28;20020;-54
2023/07/26 02:05:58;;;;;;;18.67;7.78;;;564.10;2432.00;;;;;;5090601;28;20024;-55
2023/07/26 02:08:24;;;;;;;12.57;7.68;;;564.00;2432.00;;;;;;5090320;28;20424;-61
2023/07/26 02:10:50;;;;;;;17.50;7.53;;;564.10;2432.00;;;;;;5089935;28;20470;-54
2023/07/26 02:13:15;;;;;;;15.18;8.07;;;564.10;2432.00;;;;;;5090033;28;20482;-54
2023/07/26 02:15:41;;;;;;;17.80;7.28;;;564.10;2432.00;;;;;;5089713;28;20028;-54
2023/07/26 02:18:07;;;;;;;11.98;8.00;;;588.80;2432.00;;;;;;5090063;28;20035;-55
2023/07/26 02:20:33;;;;;;;15.95;8.02;;;564.10;2432.00;;;;;;5090010;28;20501;-53
2023/07/26 02:22:59;;;;;;;18.52;9.45;;;564.00;2432.00;;;;;;5089635;28;20034;-55
2023/07/26 02:25:25;;;;;;;15.90;8.18;;;564.00;2432.00;;;;;;5089676;28;20024;-55
2023/07/26 02:27:51;;;;;;;20.05;8.27;;;563.90;2432.00;;;;;;5089336;28;20047;-54
2023/07/26 02:30:16;;;;;;;18.77;8.40;;;563.80;2432.00;;;;;;5089491;28;20040;-57
2023/07/26 02:32:42;;;;;;;16.20;8.38;;;563.80;2432.00;;;;;;5089282;28;20046;-55
2023/07/26 02:35:08;;;;;;;15.00;8.38;;;563.80;2432.00;;;;;;5090064;28;20024;-61
2023/07/26 02:37:34;;;;;;;14.00;7.93;;;563.80;2432.00;;;;;;5089478;28;20119;-60
2023/07/26 02:40:00;;;;;;;14.02;7.90;;;563.70;2432.00;;;;;;5089027;28;20123;-54
2023/07/26 02:42:27;;;;;;;18.80;7.68;;;563.70;2432.00;;;;;;5089307;28;20024;-54
2023/07/26 02:44:54;;;;;;;14.25;8.05;;;563.60;2432.00;;;;;;5089089;28;20019;-62
2023/07/26 02:47:20;;;;;;;14.98;8.40;;;563.60;2432.00;;;;;;5089119;28;20048;-54
2023/07/26 02:49:46;;;;;;;14.73;7.72;;;563.60;2432.00;;;;;;5089540;28;20553;-54
2023/07/26 02:52:13;;;;;;;13.80;7.97;;;563.40;2432.00;;;;;;5089311;28;20044;-54
2023/07/26 02:54:39;;;;;;;21.27;8.23;;;563.30;2432.00;;;;;;5089465;28;20035;-54
2023/07/26 02:57:05;;;;;;;15.25;8.10;;;563.30;2432.00;;;;;;5089401;28;20103;-55
2023/07/26 02:59:31;;;;;;;14.65;8.32;;;563.30;2432.00;;;;;;5088908;28;20508;-58
2023/07/26 03:01:56;;;;;;;13.05;7.60;;;563.40;2432.00;;;;;;5088763;28;20031;-55
2023/07/26 03:04:22;;;;;;;12.05;8.00;;;563.30;2432.00;;;;;;5088881;28;20059;-54
2023/07/26 03:06:48;;;;;;;12.60;7.18;;;563.20;2432.00;;;;;;5088847;28;20058;-55
2023/07/26 03:09:13;;;;;;;14.10;7.90;;;538.50;2406.40;;;;;;5089174;28;20020;-55
2023/07/26 03:11:39;;;;;;;17.33;8.80;;;563.20;2432.00;;;;;;5089062;28;20035;-54
2023/07/26 03:14:05;;;;;;;13.40;8.68;;;563.30;2432.00;;;;;;5089258;28;20073;-53
2023/07/26 03:16:30;;;;;;;16.90;8.57;;;563.30;2432.00;;;;;;5088711;28;20027;-53
2023/07/26 03:18:56;;;;;;;15.63;9.10;;;563.40;2432.00;;;;;;5089327;28;20363;-61
2023/07/26 03:21:22;;;;;;;20.42;9.93;;;563.30;2432.00;;;;;;5088696;28;20448;-54
2023/07/26 03:23:47;;;;;;;15.63;9.95;;;563.40;2432.00;;;;;;5088907;28;20020;-55
2023/07/26 03:26:13;;;;;;;19.58;10.45;;;563.30;2432.00;;;;;;5088165;28;20059;-53
2023/07/26 03:28:40;;;;;;;20.42;10.52;;;563.30;2432.00;;;;;;5088165;28;20039;-54
2023/07/26 03:31:06;;;;;;;21.48;10.65;;;563.20;2432.00;;;;;;5088415;28;20504;-53
2023/07/26 03:33:31;;;;;;;13.07;9.10;;;563.30;2432.00;;;;;;5088691;28;20028;-53
2023/07/26 03:35:57;;;;;;;17.45;10.57;;;563.40;2432.00;;;;;;5088918;28;20432;-54
2023/07/26 03:38:23;;;;;;;18.75;11.93;;;563.50;2432.00;;;;;;5088612;28;20023;-53
2023/07/26 03:40:48;;;;;;;19.30;12.75;;;563.60;2432.00;;;;;;5088792;28;20118;-53
2023/07/26 03:43:14;;;;;;;19.27;10.77;;;563.70;2432.00;;;;;;5088587;28;20028;-54
2023/07/26 03:45:40;;;;;;;20.02;11.82;;;563.70;2432.00;;;;;;5088712;28;20020;-54
2023/07/26 03:48:06;;;;;;;20.35;12.02;;;563.80;2432.00;;;;;;5088681;28;20051;-54
2023/07/26 03:50:33;;;;;;;17.25;11.20;;;563.80;2432.00;;;;;;5088351;28;20035;-54
2023/07/26 03:52:59;;;;;;;20.40;11.68;;;564.00;2432.00;;;;;;5088224;28;20048;-54
2023/07/26 03:55:24;;;;;;;18.08;10.98;;;564.10;2432.00;;;;;;5088509;28;20504;-54
2023/07/26 03:57:50;;;;;;;16.77;11.10;;;564.10;2432.00;;;;;;5088149;28;20484;-53
2023/07/26 04:00:16;;;;;;;14.45;11.18;;;564.10;2432.00;;;;;;5088532;28;20044;-60
2023/07/26 04:02:41;;;;;;;18.35;10.32;;;588.80;2432.00;;;;;;5088190;28;20020;-55
2023/07/26 04:05:07;;;;;;;17.17;11.15;;;564.10;2432.00;;;;;;5088803;28;20753;-53
2023/07/26 04:07:36;;;;;;;17.25;10.60;;;563.90;2432.00;;;;;;5088405;28;20500;-54
2023/07/26 04:10:02;;;;;;;16.83;11.57;;;563.70;2432.00;;;;;;5088419;28;20024;-54
2023/07/26 04:12:28;;;;;;;15.07;11.15;;;563.70;2432.00;;;;;;5090996;28;20062;-54
2023/07/26 04:14:54;;;;;;;12.52;10.73;;;563.60;2432.00;;;;;;5092164;28;20068;-54
2023/07/26 04:17:19;;;;;;;14.57;11.57;;;563.70;2432.00;;;;;;5091687;28;20031;-55
2023/07/26 04:19:45;;;;;;;14.15;11.27;;;563.50;2432.00;;;;;;5092261;28;20401;-53
2023/07/26 04:22:11;;;;;;;15.05;10.85;;;563.50;2432.00;;;;;;5091606;28;20067;-53
2023/07/26 04:24:44;;;;;;;14.90;10.98;;;563.40;2432.00;;;;;;5092170;28;20028;-53
2023/07/26 04:27:10;;;;;;;;;;;563.40;2432.00;;;;;;5092008;28;20028;-54
2023/07/26 04:29:35;;;;;;;13.35;11.52;;;563.40;2432.00;;;;;;5091838;28;19912;-54
2023/07/26 04:32:01;;;;;;;15.18;11.35;;;563.30;2432.00;;;;;;5091439;28;20028;-53
2023/07/26 04:34:26;;;;;;;16.92;12.05;;;563.30;2432.00;;;;;;5091571;28;20028;-53
2023/07/26 04:36:52;;;;;;;18.17;11.45;;;563.30;2432.00;;;;;;5091318;28;20138;-54
2023/07/26 04:39:18;;;;;;;16.58;12.82;;;563.30;2432.00;;;;;;5091059;28;20027;-54
2023/07/26 04:41:44;;;;;;;18.15;11.43;;;563.30;2432.00;;;;;;5092049;28;20042;-54
2023/07/26 04:44:09;;;;;;;18.77;11.60;;;563.40;2432.00;;;;;;5091712;28;20078;-53
2023/07/26 04:46:35;;;;;;;13.85;10.70;;;563.30;2432.00;;;;;;5091014;28;20026;-58
2023/07/26 04:49:01;;;;;;;19.52;12.63;;;563.50;2432.00;;;;;;5090876;28;20043;-54
2023/07/26 04:51:26;;;;;;;15.65;11.82;;;563.50;2432.00;;;;;;5091335;28;20448;-55
2023/07/26 04:53:52;;;;;;;16.70;10.98;;;563.40;2432.00;;;;;;5091176;28;20024;-54
2023/07/26 04:56:18;;;;;;;17.90;11.98;;;563.30;2432.00;;;;;;5091547;28;20436;-56
2023/07/26 04:58:44;;;;;;;24.60;12.15;;;563.20;2432.00;;;;;;5091519;28;20024;-54
2023/07/26 05:01:09;;;;;;;22.55;12.27;;;563.30;2432.00;;;;;;5091372;28;20399;-54
2023/07/26 05:03:37;;;;;;;16.98;11.40;;;563.20;2432.00;;;;;;5090426;28;20024;-58
2023/07/26 05:06:02;;;;;;;16.42;10.63;;;563.20;2432.00;;;;;;5084347;28;20036;-61
2023/07/26 05:08:28;;;;;;;14.05;11.52;;;563.30;2432.00;;;;;;5070091;28;20017;-53
2023/07/26 05:10:54;;;;;;;21.27;11.95;;;563.30;2432.00;;;;;;5070333;28;20028;-53
2023/07/26 05:13:20;;;;;;;15.20;10.43;;;563.30;2432.00;;;;;;5070185;28;20485;-54
2023/07/26 05:15:46;;;;;;;12.52;10.50;;;563.30;2432.00;;;;;;5070262;28;20032;-52
2023/07/26 05:18:14;;;;;;;18.80;10.25;;;563.40;2432.00;;;;;;5083381;28;20046;-53
2023/07/26 05:20:41;;;;;;;14.57;9.85;;;563.40;2432.00;;;;;;5069881;28;20040;-53
2023/07/26 05:23:06;;;;;;;10.50;8.75;;;563.60;2432.00;;;;;;5069402;28;20067;-54
2023/07/26 05:25:32;;;;;;;13.32;9.57;;;563.60;2432.00;;;;;;5070030;28;20429;-53
2023/07/26 05:27:58;;;;;;;14.25;9.57;;;563.60;2432.00;;;;;;5071531;28;20031;-54
2023/07/26 05:30:24;;;;;;;13.25;9.00;;;563.70;2432.00;;;;;;5089998;28;20036;-55
2023/07/26 05:32:50;;;;;;;10.27;8.70;;;564.00;2432.00;;;;;;5074198;28;20370;-59
2023/07/26 05:35:15;;;;;;;9.32;7.68;;;564.10;2432.00;;;;;;5069860;28;20561;-52
2023/07/26 05:37:41;;;;;;;13.30;8.65;;;563.90;2432.00;;;;;;5069533;28;20028;-51
2023/07/26 05:40:07;;;;;;;9.52;7.22;;;563.80;2432.00;;;;;;5069744;28;20035;-54
2023/07/26 05:42:34;;;;;;;14.63;8.13;;;563.70;2432.00;;;;;;5069695;28;20521;-53
2023/07/26 05:44:59;;;;;;;12.05;8.40;;;563.70;2432.00;;;;;;5069562;28;20035;-53
2023/07/26 05:47:25;;;;;;;9.95;7.72;;;563.70;2432.00;;;;;;5069707;28;20056;-54
2023/07/26 05:49:51;;;;;;;10.27;7.22;;;563.60;2432.00;;;;;;5069332;28;20424;-52
2023/07/26 05:52:18;;;;;;;9.77;8.05;;;563.60;2432.00;;;;;;5081426;28;20036;-53
2023/07/26 05:54:44;;;;;;;9.82;8.23;;;563.60;2432.00;;;;;;5070979;28;20021;-53
2023/07/26 05:57:09;;;;;;;13.27;8.23;;;563.60;2432.00;;;;;;5069351;28;20070;-53
2023/07/26 05:59:35;;;;;;;10.60;8.57;;;563.50;2432.00;;;;;;5069699;28;20044;-55
2023/07/26 06:02:01;;;;;;;12.25;8.45;;;563.40;2432.00;;;;;;5069210;28;20054;-53
2023/07/26 06:04:29;;;;;;;14.00;9.68;;;563.40;2432.00;;;;;;5068980;28;20024;-53
2023/07/26 06:06:56;;;;;;;10.13;8.90;;;563.40;2432.00;;;;;;5069309;28;20028;-60
2023/07/26 06:09:22;;;;;;;11.77;8.68;;;563.50;2432.00;;;;;;5075562;28;20024;-52
2023/07/26 06:11:48;;;;;;;13.55;9.20;;;563.50;2432.00;;;;;;5079071;28;20062;-54
2023/07/26 06:14:14;;;;;;;11.57;9.30;;;563.40;2432.00;;;;;;5084650;28;20052;-52
2023/07/26 06:16:40;;;;;;;13.82;10.18;;;563.40;2432.00;;;;;;5076095;28;20056;-53
2023/07/26 06:19:06;;;;;;;11.85;9.05;;;563.60;2432.00;;;;;;5090039;28;20065;-53
2023/07/26 06:21:33;;;;;;;12.05;8.75;;;563.60;2432.00;;;;;;5089769;28;20032;-61
2023/07/26 06:23:59;;;;;;;10.65;8.88;;;563.50;2432.00;;;;;;5069404;28;20117;-54
2023/07/26 06:26:25;;;;;;;12.25;9.00;;;563.60;2432.00;;;;;;5084603;28;20474;-60
2023/07/26 06:28:50;;;;;;;10.40;8.57;;;563.50;2432.00;;;;;;5089606;28;20046;-55
2023/07/26 06:31:16;;;;;;;10.35;8.70;;;563.40;2432.00;;;;;;5090004;28;20032;-53
2023/07/26 06:33:42;;;;;;;10.93;8.93;;;563.30;2432.00;;;;;;5089942;28;20031;-53
2023/07/26 06:36:07;;;;;;;12.98;7.97;;;563.30;2432.00;;;;;;5089132;28;20024;-55
2023/07/26 06:38:34;;;;;;;13.02;8.55;;;563.30;2432.00;;;;;;5089784;28;20427;-53
2023/07/26 06:41:00;;;;;;;12.48;6.90;;;563.30;2432.00;;;;;;5089495;28;20051;-53
2023/07/26 06:43:26;;;;;;;10.43;8.35;;;563.20;2432.00;;;;;;5089850;28;20055;-53
2023/07/26 06:45:52;;;;;;;15.48;8.98;;;563.30;2432.00;;;;;;5089515;28;20048;-53
2023/07/26 06:48:18;;;;;;;11.40;8.52;;;563.20;2432.00;;;;;;5089541;28;20590;-53
2023/07/26 06:50:45;;;;;;;9.40;7.18;;;538.50;2406.40;;;;;;5089356;28;20050;-53
2023/07/26 06:53:10;;;;;;;15.25;8.45;;;538.50;2406.40;;;;;;5089049;28;20474;-53
2023/07/26 06:55:37;;;;;;;7.43;6.03;;;538.40;2406.40;;;;;;5089401;28;20031;-53
2023/07/26 06:58:03;;;;;;;7.95;6.32;;;538.40;2406.40;;;;;;5088929;28;20031;-54
2023/07/26 07:00:29;;;;;;;11.25;6.05;;;538.40;2406.40;;;;;;5078754;28;20488;-60
2023/07/26 07:02:58;;;;;;;8.40;5.75;;;538.40;2406.40;;;;;;5068168;28;20028;-58
2023/07/26 07:05:27;;;;;;;9.52;6.57;;;538.40;2406.40;;;;;;5079203;28;20024;-53
2023/07/26 07:07:53;;;;;;;17.30;6.13;;;538.40;2406.40;;;;;;5088803;28;20040;-54
2023/07/26 07:10:19;;;;;;;6.18;4.80;;;538.40;2406.40;;;;;;5082861;28;20281;-54
2023/07/26 07:12:45;;;;;;;6.22;5.25;;;538.40;2406.40;;;;;;5081398;28;20024;-58
2023/07/26 07:15:11;;;;;;;5.45;4.57;;;538.40;2406.40;;;;;;5088555;28;20369;-58
2023/07/26 07:17:36;;;;;;;9.35;5.60;;;538.50;2406.40;;;;;;5089087;28;20103;-57
2023/07/26 07:20:05;;;;;;;7.05;5.05;;;563.20;2432.00;;;;;;5087079;28;20031;-57
2023/07/26 07:22:31;;;;;;;7.60;4.80;;;563.20;2432.00;;;;;;5076133;28;20039;-58
2023/07/26 07:24:56;;;;;;;7.90;5.15;;;538.50;2406.40;;;;;;5080815;28;20139;-55
2023/07/26 07:27:23;;;;;;;8.75;5.05;;;563.20;2432.00;;;;;;5067850;28;20488;-57
2023/07/26 07:29:49;;;;;;;8.35;4.90;;;538.50;2406.40;;;;;;5075505;28;20032;-57
2023/07/26 07:32:14;;;;;;;5.75;4.10;;;538.50;2406.40;;;;;;5068448;28;20108;-56
2023/07/26 07:34:40;;;;;;;6.75;4.82;;;538.50;2406.40;;;;;;5068332;28;20535;-57
2023/07/26 07:37:06;;;;;;;7.07;4.32;;;563.20;2432.00;;;;;;5068265;28;20032;-57
2023/07/26 07:39:32;;;;;;;7.85;4.65;;;563.20;2432.00;;;;;;5074111;28;20089;-57
2023/07/26 07:41:58;;;;;;;7.00;4.07;;;563.30;2432.00;;;;;;5089092;28;20048;-57
2023/07/26 07:44:26;;;;;;;8.38;4.47;;;563.60;2432.00;;;;;;5075097;28;20116;-57
2023/07/26 07:46:51;;;;;;;5.93;3.95;;;563.60;2432.00;;;;;;5082678;28;20017;-57
2023/07/26 07:49:17;;;;;;;7.07;4.38;;;563.70;2432.00;;;;;;5072078;28;20116;-57
2023/07/26 07:51:43;;;;;;;5.75;3.90;;;563.90;2432.00;;;;;;5072236;28;20040;-58
2023/07/26 07:54:08;;;;;;;5.63;4.28;;;564.00;2432.00;;;;;;5072520;28;20407;-57
2023/07/26 07:56:34;;;;;;;7.82;4.50;;;564.10;2432.00;;;;;;5072743;28;20035;-57
2023/07/26 07:59:00;;;;;;;6.30;3.95;;;564.10;2432.00;;;;;;5085283;28;20059;-57
2023/07/26 08:01:25;;;;;;;5.53;4.15;;;588.90;2432.00;;;;;;5072198;28;20059;-57
2023/07/26 08:03:51;;;;;;;7.43;4.03;;;588.90;2432.00;;;;;;5071573;28;20082;-56
2023/07/26 08:06:17;;;;;;;5.38;3.92;;;589.10;2432.00;;;;;;5071916;28;20419;-57
2023/07/26 08:08:42;;;;;;;5.85;4.18;;;589.10;2432.00;;;;;;5072101;28;20025;-56
2023/07/26 08:11:09;;;;;;;5.82;4.10;;;589.10;2432.00;;;;;;5071709;28;20094;-58
2023/07/26 08:13:34;;;;;;;6.07;4.65;;;589.20;2432.00;;;;;;5080363;28;20031;-58
2023/07/26 08:16:00;;;;;;;7.43;4.30;;;589.20;2432.00;;;;;;5077963;28;20028;-57
2023/07/26 08:18:26;;;;;;;6.88;4.88;;;589.00;2432.00;;;;;;5072177;28;20032;-56
2023/07/26 08:20:52;;;;;;;5.70;4.32;;;589.00;2432.00;;;;;;5072000;28;20382;-57
2023/07/26 08:23:17;;;;;;;6.90;4.97;;;588.80;2432.00;;;;;;5092577;28;20024;-58
2023/07/26 08:25:43;;;;;;;7.28;4.40;;;589.00;2432.00;;;;;;5078096;28;20028;-58
2023/07/26 08:28:09;;;;;;;7.40;4.28;;;589.10;2432.00;;;;;;5078415;28;20033;-58
2023/07/26 08:30:35;;;;;;;5.75;4.57;;;589.10;2432.00;;;;;;5092449;28;20036;-58
2023/07/26 08:33:01;;;;;;;6.97;4.25;;;589.40;2432.00;;;;;;5091594;28;20490;-58
2023/07/26 08:35:27;;;;;;;5.43;4.10;;;589.60;2432.00;;;;;;5092092;28;20071;-58
2023/07/26 08:37:52;;;;;;;8.35;4.65;;;589.70;2432.00;;;;;;5092101;28;20051;-58
2023/07/26 08:40:19;;;;;;;7.03;4.55;;;614.40;2432.00;;;;;;5092312;28;20119;-57
2023/07/26 08:42:45;;;;;;;6.88;4.30;;;614.40;2432.00;;;;;;5092516;28;20024;-57
2023/07/26 08:45:11;;;;;;;5.05;3.92;;;614.60;2432.00;;;;;;5091819;28;20016;-58
2023/07/26 08:47:38;;;;;;;7.18;4.40;;;614.50;2432.00;;;;;;5092149;28;20401;-57
2023/07/26 08:50:04;;;;;;;6.07;3.97;;;614.50;2432.00;;;;;;5091781;28;20031;-58
2023/07/26 08:52:31;;;;;;;5.57;4.38;;;614.40;2432.00;;;;;;5091345;28;20382;-57
2023/07/26 08:54:58;;;;;;;6.95;4.32;;;614.40;2432.00;;;;;;5091752;28;20533;-58
2023/07/26 08:57:24;;;;;;;5.25;4.07;;;614.50;2432.00;;;;;;5091412;28;20028;-58
2023/07/26 08:59:50;;;;;;;9.52;4.18;;;614.50;2432.00;;;;;;5090667;28;20043;-59
2023/07/26 09:02:18;;;;;;;7.18;4.25;;;614.40;2432.00;;;;;;5091635;28;20024;-58
2023/07/26 09:04:45;;;;;;;7.20;4.53;;;589.40;2432.00;;;;;;5091371;28;20047;-58
2023/07/26 09:07:12;;;;;;;5.10;3.67;;;589.40;2432.00;;;;;;5091309;28;20023;-58
2023/07/26 09:09:38;;;;;;;5.13;4.20;;;589.20;2432.00;;;;;;5091876;28;20032;-58
2023/07/26 09:12:04;;;;;;;6.00;4.25;;;589.30;2432.00;;;;;;5091955;28;20536;-58
2023/07/26 09:14:31;;;;;;;5.22;4.40;;;589.10;2432.00;;;;;;5091330;28;20028;-57
2023/07/26 09:16:59;;;;;;;6.60;4.25;;;588.90;2432.00;;;;;;5091734;28;20024;-58
2023/07/26 09:19:29;;;;;;;6.03;4.35;;;564.10;2432.00;;;;;;5091162;28;21909;-58
2023/07/26 09:21:59;;;;;;;9.05;4.28;;;564.00;2432.00;;;;;;5090975;28;20035;-57
2023/07/26 09:24:36;;;;;;;11.38;4.38;;;563.90;2432.00;;;;;;5091316;28;20020;-58
2023/07/26 09:27:04;;;;;;;6.93;4.22;;;563.80;2432.00;;;;;;5090872;28;20028;-57
2023/07/26 09:29:30;;;;;;;5.05;3.88;;;563.70;2432.00;;;;;;5090936;28;20026;-58
2023/07/26 09:31:55;;;;;;;6.18;4.75;;;563.70;2432.00;;;;;;5091263;28;20099;-58
2023/07/26 09:34:22;;;;;;;9.50;4.45;;;563.60;2432.00;;;;;;5090566;28;20031;-58
2023/07/26 09:36:49;;;;;;;7.15;4.57;;;563.70;2432.00;;;;;;5091199;28;20028;-58
2023/07/26 09:39:16;;;;;;;5.85;4.35;;;563.70;2432.00;;;;;;5090594;28;20027;-58
2023/07/26 09:41:45;;;;;;;6.50;4.65;;;563.60;2432.00;;;;;;5090779;28;20032;-57
2023/07/26 09:44:17;;;;;;;7.30;5.22;;;563.60;2432.00;;;;;;5090753;28;20511;-58
2023/07/26 09:46:51;;;;;;;7.40;5.45;;;563.50;2432.00;;;;;;5091321;28;20028;-58
2023/07/26 09:49:19;;;;;;;7.95;4.82;;;563.30;2432.00;;;;;;5090464;28;20024;-58
2023/07/26 09:51:45;;;;;;;5.57;4.55;;;563.30;2432.00;;;;;;5090882;28;20097;-58
2023/07/26 09:54:12;;;;;;;6.03;5.15;;;563.60;2432.00;;;;;;5090563;28;20062;-58
2023/07/26 09:56:40;;;;;;;7.15;4.95;;;563.60;2432.00;;;;;;5091117;28;20041;-56
2023/07/26 09:59:11;;;;;;;6.90;5.07;;;563.60;2432.00;;;;;;5090666;28;20441;-56
2023/07/26 10:01:41;;;;;;;13.10;4.95;;;563.80;2432.00;;;;;;5090534;28;20078;-57
2023/07/26 10:04:22;;;;;;;6.95;5.10;;;564.10;2432.00;;;;;;5090815;28;20095;-56
2023/07/26 10:06:51;;;;;;;5.72;5.13;;;564.00;2432.00;;;;;;5090461;28;20111;-57
2023/07/26 10:09:16;;;;;;;7.25;5.10;;;564.00;2432.00;;;;;;5090208;28;20032;-57
2023/07/26 10:11:43;;;;;;;6.82;5.63;;;564.10;2432.00;;;;;;5090410;28;20115;-57
2023/07/26 10:14:14;;;;;;;6.43;5.63;;;588.80;2432.00;;;;;;5090439;28;20016;-57
2023/07/26 10:16:39;;;;;;;7.43;5.80;;;589.10;2432.00;;;;;;5090129;28;20426;-57
2023/07/26 10:19:06;;;;;;;7.28;5.53;;;588.90;2432.00;;;;;;5090427;28;20111;-56
2023/07/26 10:21:36;;;;;;;8.50;5.38;;;564.10;2432.00;;;;;;5089860;28;20047;-57
2023/07/26 10:24:04;;;;;;;7.60;5.80;;;564.00;2432.00;;;;;;5090111;28;20027;-56
2023/07/26 10:26:32;;;;;;;9.40;5.95;;;563.90;2432.00;;;;;;5089414;28;20044;-55
2023/07/26 10:28:59;;;;;;;8.35;5.88;;;563.90;2432.00;;;;;;5088475;28;20520;-57
2023/07/26 10:31:29;;;;;;;6.18;5.22;;;563.80;2432.00;;;;;;5089754;28;20089;-59
2023/07/26 10:33:57;;;;;;;11.52;6.38;;;563.70;2432.00;;;;;;5076835;28;20134;-56
2023/07/26 10:36:33;;;;;;;8.95;6.65;;;563.60;2432.00;;;;;;5089754;28;20059;-58
2023/07/26 10:39:06;;;;;;;11.07;5.75;;;563.40;2432.00;;;;;;5078346;28;20032;-57
2023/07/26 10:41:34;;;;;;;6.82;6.07;;;563.30;2432.00;;;;;;5088489;28;20191;-56
2023/07/26 10:44:05;;;;;;;9.38;6.63;;;563.30;2432.00;;;;;;5089516;28;20135;-57
2023/07/26 10:46:53;;;;;;;9.82;6.03;;;563.40;2432.00;;;;;;5089586;28;20119;-57
2023/07/26 10:49:26;;;;;;;8.77;5.82;;;563.40;2432.00;;;;;;5077377;28;20033;-57
2023/07/26 10:52:05;;;;;;;8.13;5.90;;;563.30;2432.00;;;;;;5075246;28;20031;-58
2023/07/26 10:54:46;;;;;;;8.15;6.03;;;563.40;2432.00;;;;;;5087035;28;20027;-59
2023/07/26 10:57:30;;;;;;;6.82;5.20;;;563.40;2432.00;;;;;;5068927;28;20028;-58
2023/07/26 11:00:01;;;;;;;10.50;6.05;;;563.40;2432.00;;;;;;5069201;28;20041;-55
2023/07/26 11:02:48;;;;;;;10.63;6.78;;;563.40;2432.00;;;;;;5071419;28;20049;-56
2023/07/26 11:05:19;;;;;;;7.70;5.80;;;563.40;2432.00;;;;;;5068396;28;20013;-57
2023/07/26 11:08:03;;;;;;;7.13;5.20;;;563.40;2432.00;;;;;;5078280;28;20024;-57
2023/07/26 11:10:31;;;;;;;9.32;6.18;;;563.40;2432.00;;;;;;5088909;28;20028;-57
2023/07/26 11:13:18;;;;;;;12.00;6.88;;;563.30;2432.00;;;;;;5079313;28;20025;-58
2023/07/26 11:15:50;;;;;;;7.13;6.38;;;563.20;2432.00;;;;;;5069009;28;20027;-55
2023/07/26 11:18:18;;;;;;;8.40;6.47;;;538.50;2406.40;;;;;;5068936;28;20020;-57
2023/07/26 11:20:50;;;;;;;7.63;5.88;;;538.50;2406.40;;;;;;5068707;28;20390;-57
2023/07/26 11:23:24;;;;;;;7.20;6.50;;;538.50;2406.40;;;;;;5069287;28;20067;-56
2023/07/26 11:25:54;;;;;;;11.57;7.32;;;538.50;2406.40;;;;;;5068661;28;20063;-56
2023/07/26 11:28:20;;;;;;;8.52;7.20;;;563.20;2432.00;;;;;;5083365;28;20051;-57
2023/07/26 11:30:56;;;;;;;8.70;6.38;;;563.30;2432.00;;;;;;5089361;28;20097;-56
2023/07/26 11:33:33;;;;;;;10.65;6.82;;;563.30;2432.00;;;;;;5073988;28;20029;-55
2023/07/26 11:36:01;;;;;;;8.82;6.75;;;563.30;2432.00;;;;;;5068785;28;20048;-57
2023/07/26 11:38:27;;;;;;;6.93;6.20;;;563.20;2432.00;;;;;;5068838;28;20029;-56
2023/07/26 11:40:55;;;;;;;8.18;6.38;;;538.50;2406.40;;;;;;5068547;28;20036;-56
2023/07/26 11:43:22;;;;;;;7.25;6.13;;;538.50;2406.40;;;;;;5068568;28;20023;-57
2023/07/26 11:45:48;;;;;;;8.52;6.07;;;538.40;2406.40;;;;;;5070442;28;20024;-56
2023/07/26 11:48:15;;;;;;;14.45;7.07;;;563.20;2432.00;;;;;;5088524;28;20036;-57
2023/07/26 11:50:41;;;;;;;10.60;7.35;;;563.30;2432.00;;;;;;5088864;28;20089;-58
2023/07/26 11:53:12;;;;;;;9.25;6.95;;;563.50;2432.00;;;;;;5088499;28;20020;-57
2023/07/26 11:55:39;;;;;;;7.50;6.25;;;563.60;2432.00;;;;;;5088806;28;20482;-57
2023/07/26 11:58:10;;;;;;;11.23;6.38;;;563.40;2432.00;;;;;;5088981;28;20024;-57
2023/07/26 12:00:46;;;;;;;8.07;6.10;;;563.60;2432.00;;;;;;5075535;28;20040;-57
2023/07/26 12:03:12;;;;;;;8.50;6.78;;;563.60;2432.00;;;;;;5068525;28;20016;-57
2023/07/26 12:05:44;;;;;;;9.77;6.95;;;563.70;2432.00;;;;;;5068534;28;20062;-57
2023/07/26 12:08:10;;;;;;;8.82;6.13;;;563.70;2432.00;;;;;;5084155;28;20032;-56
2023/07/26 12:10:41;;;;;;;8.23;6.35;;;564.00;2432.00;;;;;;5080196;28;20037;-57